sensor_id;sensor_type;location;lat;lon;timestamp;temperature;humidity
53520;DHT22;39397;53.204;5.778;2023-05-20T00:00:08;10.30;99.90
53520;DHT22;39397;53.204;5.778;2023-05-20T00:02:35;10.30;99.90
53520;DHT22;39397;53.204;5.778;2023-05-20T00:05:01;10.20;99.90
53520;DHT22;39397;53.204;5.778;2023-05-20T00:07:26;10.40;99.90
53520;DHT22;39397;53.204;5.778;2023-05-20T00:09:52;10.40;99.90
53520;DHT22;39397;53.204;5.778;2023-05-20T00:12:18;10.20;99.90
53520;DHT22;39397;53.204;5.778;2023-05-20T00:14:44;10.30;99.90
53520;DHT22;39397;53.204;5.778;2023-05-20T00:17:10;10.20;99.90
53520;DHT22;39397;53.204;5.778;2023-05-20T00:19:41;10.20;99.90
53520;DHT22;39397;53.204;5.778;2023-05-20T00:22:07;10.80;99.90
53520;DHT22;39397;53.204;5.778;2023-05-20T00:24:33;10.20;99.90
53520;DHT22;39397;53.204;5.778;2023-05-20T00:26:58;10.30;99.90
53520;DHT22;39397;53.204;5.778;2023-05-20T00:29:24;10.20;99.90
53520;DHT22;39397;53.204;5.778;2023-05-20T00:31:50;10.20;99.90
53520;DHT22;39397;53.204;5.778;2023-05-20T00:34:15;10.30;99.90
53520;DHT22;39397;53.204;5.778;2023-05-20T00:36:41;10.20;99.90
53520;DHT22;39397;53.204;5.778;2023-05-20T00:39:07;10.20;99.90
53520;DHT22;39397;53.204;5.778;2023-05-20T00:41:33;10.20;99.90
53520;DHT22;39397;53.204;5.778;2023-05-20T00:43:59;10.30;99.90
53520;DHT22;39397;53.204;5.778;2023-05-20T00:46:25;10.30;99.90
53520;DHT22;39397;53.204;5.778;2023-05-20T00:48:52;10.20;99.90
53520;DHT22;39397;53.204;5.778;2023-05-20T00:51:19;10.90;99.90
53520;DHT22;39397;53.204;5.778;2023-05-20T00:53:45;10.30;99.90
53520;DHT22;39397;53.204;5.778;2023-05-20T00:56:11;10.20;99.90
53520;DHT22;39397;53.204;5.778;2023-05-20T00:58:37;10.20;99.90
53520;DHT22;39397;53.204;5.778;2023-05-20T01:01:04;10.20;99.90
53520;DHT22;39397;53.204;5.778;2023-05-20T01:03:31;10.10;99.90
53520;DHT22;39397;53.204;5.778;2023-05-20T01:05:57;10.30;99.90
53520;DHT22;39397;53.204;5.778;2023-05-20T01:08:24;10.10;99.90
53520;DHT22;39397;53.204;5.778;2023-05-20T01:11:25;10.10;99.90
53520;DHT22;39397;53.204;5.778;2023-05-20T01:14:01;10.00;99.90
53520;DHT22;39397;53.204;5.778;2023-05-20T01:16:30;10.00;99.90
53520;DHT22;39397;53.204;5.778;2023-05-20T01:18:58;10.00;99.90
53520;DHT22;39397;53.204;5.778;2023-05-20T01:21:27;10.00;99.90
53520;DHT22;39397;53.204;5.778;2023-05-20T01:23:55;10.10;99.90
53520;DHT22;39397;53.204;5.778;2023-05-20T01:26:21;10.30;99.90
53520;DHT22;39397;53.204;5.778;2023-05-20T01:28:51;9.90;99.90
53520;DHT22;39397;53.204;5.778;2023-05-20T01:31:21;9.90;99.90
53520;DHT22;39397;53.204;5.778;2023-05-20T01:33:54;10.00;99.90
53520;DHT22;39397;53.204;5.778;2023-05-20T01:36:21;9.90;99.90
53520;DHT22;39397;53.204;5.778;2023-05-20T01:38:48;9.90;99.90
53520;DHT22;39397;53.204;5.778;2023-05-20T01:41:14;9.80;99.90
53520;DHT22;39397;53.204;5.778;2023-05-20T01:43:40;11.10;99.90
53520;DHT22;39397;53.204;5.778;2023-05-20T01:46:06;10.10;99.90
53520;DHT22;39397;53.204;5.778;2023-05-20T01:48:32;9.70;99.90
53520;DHT22;39397;53.204;5.778;2023-05-20T01:50:58;9.60;99.90
53520;DHT22;39397;53.204;5.778;2023-05-20T01:53:24;10.40;99.90
53520;DHT22;39397;53.204;5.778;2023-05-20T01:55:50;9.70;99.90
53520;DHT22;39397;53.204;5.778;2023-05-20T01:58:16;9.60;99.90
53520;DHT22;39397;53.204;5.778;2023-05-20T02:00:41;9.70;99.90
53520;DHT22;39397;53.204;5.778;2023-05-20T02:03:07;9.70;99.90
53520;DHT22;39397;53.204;5.778;2023-05-20T02:05:34;9.60;99.90
53520;DHT22;39397;53.204;5.778;2023-05-20T02:07:59;9.60;99.90
53520;DHT22;39397;53.204;5.778;2023-05-20T02:10:25;9.60;99.90
53520;DHT22;39397;53.204;5.778;2023-05-20T02:12:51;9.50;99.90
53520;DHT22;39397;53.204;5.778;2023-05-20T02:15:17;9.50;99.90
53520;DHT22;39397;53.204;5.778;2023-05-20T02:17:42;10.30;99.90
53520;DHT22;39397;53.204;5.778;2023-05-20T02:20:08;9.50;99.90
53520;DHT22;39397;53.204;5.778;2023-05-20T02:22:35;9.40;99.90
53520;DHT22;39397;53.204;5.778;2023-05-20T02:25:01;9.60;99.90
53520;DHT22;39397;53.204;5.778;2023-05-20T02:27:26;9.40;99.90
53520;DHT22;39397;53.204;5.778;2023-05-20T02:29:52;9.40;99.90
53520;DHT22;39397;53.204;5.778;2023-05-20T02:32:18;9.40;99.90
53520;DHT22;39397;53.204;5.778;2023-05-20T02:34:45;9.50;99.90
53520;DHT22;39397;53.204;5.778;2023-05-20T02:37:10;10.30;99.90
53520;DHT22;39397;53.204;5.778;2023-05-20T02:39:36;9.40;99.90
53520;DHT22;39397;53.204;5.778;2023-05-20T02:42:02;9.50;99.90
53520;DHT22;39397;53.204;5.778;2023-05-20T02:44:29;9.50;99.90
53520;DHT22;39397;53.204;5.778;2023-05-20T02:46:54;9.40;99.90
53520;DHT22;39397;53.204;5.778;2023-05-20T02:49:20;9.50;99.90
53520;DHT22;39397;53.204;5.778;2023-05-20T02:51:46;9.40;99.90
53520;DHT22;39397;53.204;5.778;2023-05-20T02:54:12;9.40;99.90
53520;DHT22;39397;53.204;5.778;2023-05-20T02:56:37;9.80;99.90
53520;DHT22;39397;53.204;5.778;2023-05-20T02:59:04;9.40;99.90
53520;DHT22;39397;53.204;5.778;2023-05-20T03:01:30;9.50;99.90
53520;DHT22;39397;53.204;5.778;2023-05-20T03:03:58;9.50;99.90
53520;DHT22;39397;53.204;5.778;2023-05-20T03:06:23;10.10;99.90
53520;DHT22;39397;53.204;5.778;2023-05-20T03:08:49;9.40;99.90
53520;DHT22;39397;53.204;5.778;2023-05-20T03:11:15;9.50;99.90
53520;DHT22;39397;53.204;5.778;2023-05-20T03:13:41;9.40;99.90
53520;DHT22;39397;53.204;5.778;2023-05-20T03:16:06;9.30;99.90
53520;DHT22;39397;53.204;5.778;2023-05-20T03:18:32;9.30;99.90
53520;DHT22;39397;53.204;5.778;2023-05-20T03:20:58;9.40;99.90
53520;DHT22;39397;53.204;5.778;2023-05-20T03:23:23;9.30;99.90
53520;DHT22;39397;53.204;5.778;2023-05-20T03:25:49;9.40;99.90
53520;DHT22;39397;53.204;5.778;2023-05-20T03:28:15;9.40;99.90
53520;DHT22;39397;53.204;5.778;2023-05-20T03:30:40;9.60;99.90
53520;DHT22;39397;53.204;5.778;2023-05-20T03:33:06;9.30;99.90
53520;DHT22;39397;53.204;5.778;2023-05-20T03:35:32;9.30;99.90
53520;DHT22;39397;53.204;5.778;2023-05-20T03:37:57;9.80;99.90
53520;DHT22;39397;53.204;5.778;2023-05-20T03:40:26;9.40;99.90
53520;DHT22;39397;53.204;5.778;2023-05-20T03:42:51;9.40;99.90
53520;DHT22;39397;53.204;5.778;2023-05-20T03:45:17;9.50;99.90
53520;DHT22;39397;53.204;5.778;2023-05-20T03:47:43;9.50;99.90
53520;DHT22;39397;53.204;5.778;2023-05-20T03:50:09;9.40;99.90
53520;DHT22;39397;53.204;5.778;2023-05-20T03:52:35;9.50;99.90
53520;DHT22;39397;53.204;5.778;2023-05-20T03:55:01;9.50;99.90
53520;DHT22;39397;53.204;5.778;2023-05-20T03:57:27;9.50;99.90
53520;DHT22;39397;53.204;5.778;2023-05-20T03:59:53;9.60;99.90
53520;DHT22;39397;53.204;5.778;2023-05-20T04:02:19;9.60;99.90
53520;DHT22;39397;53.204;5.778;2023-05-20T04:04:46;9.80;99.90
53520;DHT22;39397;53.204;5.778;2023-05-20T04:07:11;9.60;99.90
53520;DHT22;39397;53.204;5.778;2023-05-20T04:09:37;9.70;99.90
53520;DHT22;39397;53.204;5.778;2023-05-20T04:12:04;9.80;99.90
53520;DHT22;39397;53.204;5.778;2023-05-20T04:14:30;9.80;99.90
53520;DHT22;39397;53.204;5.778;2023-05-20T04:16:58;9.70;99.90
53520;DHT22;39397;53.204;5.778;2023-05-20T04:19:24;9.70;99.90
53520;DHT22;39397;53.204;5.778;2023-05-20T04:21:52;9.70;99.90
53520;DHT22;39397;53.204;5.778;2023-05-20T04:24:18;9.80;99.90
53520;DHT22;39397;53.204;5.778;2023-05-20T04:26:44;9.80;99.90
53520;DHT22;39397;53.204;5.778;2023-05-20T04:29:10;9.80;99.90
53520;DHT22;39397;53.204;5.778;2023-05-20T04:31:36;10.00;99.90
53520;DHT22;39397;53.204;5.778;2023-05-20T04:34:02;9.90;99.90
53520;DHT22;39397;53.204;5.778;2023-05-20T04:36:29;9.90;99.90
53520;DHT22;39397;53.204;5.778;2023-05-20T04:38:55;10.10;99.90
53520;DHT22;39397;53.204;5.778;2023-05-20T04:41:21;10.00;99.90
53520;DHT22;39397;53.204;5.778;2023-05-20T04:43:47;10.10;99.90
53520;DHT22;39397;53.204;5.778;2023-05-20T04:46:14;10.10;99.90
53520;DHT22;39397;53.204;5.778;2023-05-20T04:48:41;11.00;99.90
53520;DHT22;39397;53.204;5.778;2023-05-20T04:51:08;10.20;99.90
53520;DHT22;39397;53.204;5.778;2023-05-20T04:53:34;10.30;99.90
53520;DHT22;39397;53.204;5.778;2023-05-20T04:56:00;10.30;99.90
53520;DHT22;39397;53.204;5.778;2023-05-20T04:58:26;11.20;99.90
53520;DHT22;39397;53.204;5.778;2023-05-20T05:00:54;10.50;99.90
53520;DHT22;39397;53.204;5.778;2023-05-20T05:03:21;10.50;99.90
53520;DHT22;39397;53.204;5.778;2023-05-20T05:05:46;10.50;99.90
53520;DHT22;39397;53.204;5.778;2023-05-20T05:08:12;10.70;99.90
53520;DHT22;39397;53.204;5.778;2023-05-20T05:10:38;10.60;99.90
53520;DHT22;39397;53.204;5.778;2023-05-20T05:13:04;10.70;99.90
53520;DHT22;39397;53.204;5.778;2023-05-20T05:15:30;10.90;99.90
53520;DHT22;39397;53.204;5.778;2023-05-20T05:17:56;10.80;99.90
53520;DHT22;39397;53.204;5.778;2023-05-20T05:20:22;10.90;99.90
53520;DHT22;39397;53.204;5.778;2023-05-20T05:22:48;11.10;99.90
53520;DHT22;39397;53.204;5.778;2023-05-20T05:25:15;11.20;99.90
53520;DHT22;39397;53.204;5.778;2023-05-20T05:27:41;11.30;99.90
53520;DHT22;39397;53.204;5.778;2023-05-20T05:30:07;11.30;99.90
53520;DHT22;39397;53.204;5.778;2023-05-20T05:32:33;11.20;99.90
53520;DHT22;39397;53.204;5.778;2023-05-20T05:35:00;11.30;99.90
53520;DHT22;39397;53.204;5.778;2023-05-20T05:37:26;11.40;99.90
53520;DHT22;39397;53.204;5.778;2023-05-20T05:39:52;11.30;99.90
53520;DHT22;39397;53.204;5.778;2023-05-20T05:42:17;11.40;99.90
53520;DHT22;39397;53.204;5.778;2023-05-20T05:44:43;11.60;99.90
53520;DHT22;39397;53.204;5.778;2023-05-20T05:47:09;11.60;99.90
53520;DHT22;39397;53.204;5.778;2023-05-20T05:49:35;11.80;99.90
53520;DHT22;39397;53.204;5.778;2023-05-20T05:52:01;11.90;99.90
53520;DHT22;39397;53.204;5.778;2023-05-20T05:54:26;12.00;99.90
53520;DHT22;39397;53.204;5.778;2023-05-20T05:56:52;12.20;99.90
53520;DHT22;39397;53.204;5.778;2023-05-20T05:59:18;12.40;99.90
53520;DHT22;39397;53.204;5.778;2023-05-20T06:01:44;12.50;99.90
53520;DHT22;39397;53.204;5.778;2023-05-20T06:04:10;12.60;99.90
53520;DHT22;39397;53.204;5.778;2023-05-20T06:06:36;12.50;99.90
53520;DHT22;39397;53.204;5.778;2023-05-20T06:09:02;12.40;99.90
53520;DHT22;39397;53.204;5.778;2023-05-20T06:11:28;12.40;99.90
53520;DHT22;39397;53.204;5.778;2023-05-20T06:13:54;12.30;99.90
53520;DHT22;39397;53.204;5.778;2023-05-20T06:16:20;12.40;99.90
53520;DHT22;39397;53.204;5.778;2023-05-20T06:18:46;12.30;99.90
53520;DHT22;39397;53.204;5.778;2023-05-20T06:21:12;12.40;99.90
53520;DHT22;39397;53.204;5.778;2023-05-20T06:23:37;12.50;99.90
53520;DHT22;39397;53.204;5.778;2023-05-20T06:26:03;12.70;99.90
53520;DHT22;39397;53.204;5.778;2023-05-20T06:28:29;12.90;99.90
53520;DHT22;39397;53.204;5.778;2023-05-20T06:30:56;13.20;99.90
53520;DHT22;39397;53.204;5.778;2023-05-20T06:33:26;13.50;99.90
53520;DHT22;39397;53.204;5.778;2023-05-20T06:35:53;13.70;99.90
53520;DHT22;39397;53.204;5.778;2023-05-20T06:38:19;13.90;99.90
53520;DHT22;39397;53.204;5.778;2023-05-20T06:40:45;13.90;99.90
53520;DHT22;39397;53.204;5.778;2023-05-20T06:43:12;14.00;99.90
53520;DHT22;39397;53.204;5.778;2023-05-20T06:45:38;14.20;99.90
53520;DHT22;39397;53.204;5.778;2023-05-20T06:48:03;14.30;99.90
53520;DHT22;39397;53.204;5.778;2023-05-20T06:50:29;14.30;99.90
53520;DHT22;39397;53.204;5.778;2023-05-20T06:52:55;14.40;99.90
53520;DHT22;39397;53.204;5.778;2023-05-20T06:55:20;14.30;99.90
53520;DHT22;39397;53.204;5.778;2023-05-20T06:57:46;14.60;99.90
53520;DHT22;39397;53.204;5.778;2023-05-20T07:00:12;14.60;99.90
53520;DHT22;39397;53.204;5.778;2023-05-20T07:02:38;14.80;99.90
53520;DHT22;39397;53.204;5.778;2023-05-20T07:05:05;14.80;99.90
53520;DHT22;39397;53.204;5.778;2023-05-20T07:07:31;14.90;99.90
53520;DHT22;39397;53.204;5.778;2023-05-20T07:09:57;14.90;99.90
53520;DHT22;39397;53.204;5.778;2023-05-20T07:12:23;14.90;99.90
53520;DHT22;39397;53.204;5.778;2023-05-20T07:14:48;15.00;99.90
53520;DHT22;39397;53.204;5.778;2023-05-20T07:17:14;15.10;99.90
53520;DHT22;39397;53.204;5.778;2023-05-20T07:19:40;15.20;99.90
53520;DHT22;39397;53.204;5.778;2023-05-20T07:22:06;15.30;99.90
53520;DHT22;39397;53.204;5.778;2023-05-20T07:24:31;15.20;99.90
53520;DHT22;39397;53.204;5.778;2023-05-20T07:26:57;15.30;99.90
53520;DHT22;39397;53.204;5.778;2023-05-20T07:29:23;15.20;99.90
53520;DHT22;39397;53.204;5.778;2023-05-20T07:31:49;15.40;99.90
53520;DHT22;39397;53.204;5.778;2023-05-20T07:34:15;15.40;99.90
53520;DHT22;39397;53.204;5.778;2023-05-20T07:36:41;15.50;99.90
53520;DHT22;39397;53.204;5.778;2023-05-20T07:39:08;15.50;99.90
53520;DHT22;39397;53.204;5.778;2023-05-20T07:41:38;15.70;99.90
53520;DHT22;39397;53.204;5.778;2023-05-20T07:44:04;15.70;99.90
53520;DHT22;39397;53.204;5.778;2023-05-20T07:46:33;15.80;99.90
53520;DHT22;39397;53.204;5.778;2023-05-20T07:48:59;15.90;99.90
53520;DHT22;39397;53.204;5.778;2023-05-20T07:51:25;15.90;99.90
53520;DHT22;39397;53.204;5.778;2023-05-20T07:53:50;16.00;99.90
53520;DHT22;39397;53.204;5.778;2023-05-20T07:56:16;16.00;99.90
53520;DHT22;39397;53.204;5.778;2023-05-20T07:58:42;16.00;99.90
53520;DHT22;39397;53.204;5.778;2023-05-20T08:01:08;16.00;99.90
53520;DHT22;39397;53.204;5.778;2023-05-20T08:03:37;16.10;99.90
53520;DHT22;39397;53.204;5.778;2023-05-20T08:06:02;16.10;99.90
53520;DHT22;39397;53.204;5.778;2023-05-20T08:08:28;16.10;99.90
53520;DHT22;39397;53.204;5.778;2023-05-20T08:10:57;16.10;99.90
53520;DHT22;39397;53.204;5.778;2023-05-20T08:13:23;16.20;99.90
53520;DHT22;39397;53.204;5.778;2023-05-20T08:15:52;16.30;99.90
53520;DHT22;39397;53.204;5.778;2023-05-20T08:18:18;16.50;99.90
53520;DHT22;39397;53.204;5.778;2023-05-20T08:20:44;16.50;99.90
53520;DHT22;39397;53.204;5.778;2023-05-20T08:23:09;16.70;99.90
53520;DHT22;39397;53.204;5.778;2023-05-20T08:25:35;15.30;99.90
53520;DHT22;39397;53.204;5.778;2023-05-20T08:28:03;16.80;99.90
53520;DHT22;39397;53.204;5.778;2023-05-20T08:30:30;16.80;99.90
53520;DHT22;39397;53.204;5.778;2023-05-20T08:32:56;16.90;99.90
53520;DHT22;39397;53.204;5.778;2023-05-20T08:35:22;16.90;99.90
53520;DHT22;39397;53.204;5.778;2023-05-20T08:37:48;16.80;99.90
53520;DHT22;39397;53.204;5.778;2023-05-20T08:40:14;16.80;99.90
53520;DHT22;39397;53.204;5.778;2023-05-20T08:42:41;16.90;99.90
53520;DHT22;39397;53.204;5.778;2023-05-20T08:45:10;17.00;99.90
53520;DHT22;39397;53.204;5.778;2023-05-20T08:47:40;17.10;99.90
53520;DHT22;39397;53.204;5.778;2023-05-20T08:50:06;16.00;99.90
53520;DHT22;39397;53.204;5.778;2023-05-20T08:52:34;17.10;99.90
53520;DHT22;39397;53.204;5.778;2023-05-20T08:55:01;17.00;99.90
53520;DHT22;39397;53.204;5.778;2023-05-20T08:57:28;17.10;99.70
53520;DHT22;39397;53.204;5.778;2023-05-20T08:59:54;17.20;98.90
53520;DHT22;39397;53.204;5.778;2023-05-20T09:02:21;17.10;98.50
53520;DHT22;39397;53.204;5.778;2023-05-20T09:04:47;17.30;98.30
53520;DHT22;39397;53.204;5.778;2023-05-20T09:07:13;17.40;97.60
53520;DHT22;39397;53.204;5.778;2023-05-20T09:09:39;17.30;97.50
53520;DHT22;39397;53.204;5.778;2023-05-20T09:12:05;17.20;97.10
53520;DHT22;39397;53.204;5.778;2023-05-20T09:14:31;17.30;96.80
53520;DHT22;39397;53.204;5.778;2023-05-20T09:16:57;17.30;96.80
53520;DHT22;39397;53.204;5.778;2023-05-20T09:19:23;17.30;96.70
53520;DHT22;39397;53.204;5.778;2023-05-20T09:21:53;17.40;96.70
53520;DHT22;39397;53.204;5.778;2023-05-20T09:24:24;15.50;95.80
53520;DHT22;39397;53.204;5.778;2023-05-20T09:26:50;17.60;97.10
53520;DHT22;39397;53.204;5.778;2023-05-20T09:29:16;17.50;97.30
53520;DHT22;39397;53.204;5.778;2023-05-20T09:31:42;17.70;97.10
53520;DHT22;39397;53.204;5.778;2023-05-20T09:34:09;17.80;96.50
53520;DHT22;39397;53.204;5.778;2023-05-20T09:36:34;17.90;95.70
53520;DHT22;39397;53.204;5.778;2023-05-20T09:39:02;17.80;95.80
53520;DHT22;39397;53.204;5.778;2023-05-20T09:41:37;17.80;96.00
53520;DHT22;39397;53.204;5.778;2023-05-20T09:44:04;17.90;95.90
53520;DHT22;39397;53.204;5.778;2023-05-20T09:46:32;17.80;95.70
53520;DHT22;39397;53.204;5.778;2023-05-20T09:48:59;17.80;95.90
53520;DHT22;39397;53.204;5.778;2023-05-20T09:51:26;17.80;96.00
53520;DHT22;39397;53.204;5.778;2023-05-20T09:53:54;17.90;96.20
53520;DHT22;39397;53.204;5.778;2023-05-20T09:56:20;18.20;96.20
53520;DHT22;39397;53.204;5.778;2023-05-20T09:58:49;18.20;96.30
53520;DHT22;39397;53.204;5.778;2023-05-20T10:01:15;18.20;96.10
53520;DHT22;39397;53.204;5.778;2023-05-20T10:03:41;18.20;96.10
53520;DHT22;39397;53.204;5.778;2023-05-20T10:06:49;18.30;96.40
53520;DHT22;39397;53.204;5.778;2023-05-20T10:09:58;18.40;96.20
53520;DHT22;39397;53.204;5.778;2023-05-20T10:15:54;18.40;96.30
53520;DHT22;39397;53.204;5.778;2023-05-20T10:18:48;18.40;96.20
53520;DHT22;39397;53.204;5.778;2023-05-20T10:21:20;18.50;95.80
53520;DHT22;39397;53.204;5.778;2023-05-20T10:23:52;18.40;96.60
53520;DHT22;39397;53.204;5.778;2023-05-20T10:26:18;18.40;96.90
53520;DHT22;39397;53.204;5.778;2023-05-20T10:28:45;18.50;97.10
53520;DHT22;39397;53.204;5.778;2023-05-20T10:31:21;18.50;97.30
53520;DHT22;39397;53.204;5.778;2023-05-20T10:33:50;18.70;97.40
53520;DHT22;39397;53.204;5.778;2023-05-20T10:36:26;18.70;97.20
53520;DHT22;39397;53.204;5.778;2023-05-20T10:38:54;18.70;97.10
53520;DHT22;39397;53.204;5.778;2023-05-20T10:41:24;18.60;96.80
53520;DHT22;39397;53.204;5.778;2023-05-20T10:44:04;18.70;96.20
53520;DHT22;39397;53.204;5.778;2023-05-20T10:46:32;18.60;96.60
53520;DHT22;39397;53.204;5.778;2023-05-20T10:48:58;18.70;97.10
53520;DHT22;39397;53.204;5.778;2023-05-20T10:51:24;18.60;97.00
53520;DHT22;39397;53.204;5.778;2023-05-20T10:53:54;18.60;96.90
53520;DHT22;39397;53.204;5.778;2023-05-20T10:56:24;18.60;96.90
53520;DHT22;39397;53.204;5.778;2023-05-20T10:58:52;18.60;97.20
53520;DHT22;39397;53.204;5.778;2023-05-20T11:01:25;18.60;97.40
53520;DHT22;39397;53.204;5.778;2023-05-20T11:03:53;18.70;97.30
53520;DHT22;39397;53.204;5.778;2023-05-20T11:06:25;18.80;97.30
53520;DHT22;39397;53.204;5.778;2023-05-20T11:08:53;18.70;97.50
53520;DHT22;39397;53.204;5.778;2023-05-20T11:11:18;18.80;97.60
53520;DHT22;39397;53.204;5.778;2023-05-20T11:13:49;18.80;97.30
53520;DHT22;39397;53.204;5.778;2023-05-20T11:16:15;18.80;97.30
53520;DHT22;39397;53.204;5.778;2023-05-20T11:18:41;18.80;97.20
53520;DHT22;39397;53.204;5.778;2023-05-20T11:21:07;18.80;97.10
53520;DHT22;39397;53.204;5.778;2023-05-20T11:23:32;18.80;97.10
53520;DHT22;39397;53.204;5.778;2023-05-20T11:25:58;18.70;96.90
53520;DHT22;39397;53.204;5.778;2023-05-20T11:28:24;18.70;97.20
53520;DHT22;39397;53.204;5.778;2023-05-20T11:30:51;18.80;97.30
53520;DHT22;39397;53.204;5.778;2023-05-20T11:33:17;18.90;97.20
53520;DHT22;39397;53.204;5.778;2023-05-20T11:38:10;18.90;97.40
53520;DHT22;39397;53.204;5.778;2023-05-20T11:40:36;18.80;97.10
53520;DHT22;39397;53.204;5.778;2023-05-20T11:43:02;19.00;97.00
53520;DHT22;39397;53.204;5.778;2023-05-20T11:45:42;18.90;97.50
53520;DHT22;39397;53.204;5.778;2023-05-20T11:48:09;18.90;97.60
53520;DHT22;39397;53.204;5.778;2023-05-20T11:50:40;19.20;97.20
53520;DHT22;39397;53.204;5.778;2023-05-20T11:53:13;19.30;97.30
53520;DHT22;39397;53.204;5.778;2023-05-20T11:55:46;19.20;97.40
53520;DHT22;39397;53.204;5.778;2023-05-20T11:58:18;19.20;97.50
53520;DHT22;39397;53.204;5.778;2023-05-20T12:00:44;19.20;97.50
53520;DHT22;39397;53.204;5.778;2023-05-20T12:03:10;19.30;97.20
53520;DHT22;39397;53.204;5.778;2023-05-20T12:05:36;19.40;97.10
53520;DHT22;39397;53.204;5.778;2023-05-20T12:08:02;19.20;97.10
53520;DHT22;39397;53.204;5.778;2023-05-20T12:10:28;19.20;97.20
53520;DHT22;39397;53.204;5.778;2023-05-20T12:12:54;19.30;97.30
53520;DHT22;39397;53.204;5.778;2023-05-20T12:15:20;19.30;97.50
53520;DHT22;39397;53.204;5.778;2023-05-20T12:17:51;19.30;97.40
53520;DHT22;39397;53.204;5.778;2023-05-20T12:20:20;19.40;97.30
53520;DHT22;39397;53.204;5.778;2023-05-20T12:22:46;19.50;97.20
53520;DHT22;39397;53.204;5.778;2023-05-20T12:25:14;19.50;97.30
53520;DHT22;39397;53.204;5.778;2023-05-20T12:27:44;19.50;97.00
53520;DHT22;39397;53.204;5.778;2023-05-20T12:30:17;19.50;96.80
53520;DHT22;39397;53.204;5.778;2023-05-20T12:32:44;19.30;96.70
53520;DHT22;39397;53.204;5.778;2023-05-20T12:35:10;19.30;96.90
53520;DHT22;39397;53.204;5.778;2023-05-20T12:37:40;19.10;97.20
53520;DHT22;39397;53.204;5.778;2023-05-20T12:40:07;19.10;97.30
53520;DHT22;39397;53.204;5.778;2023-05-20T12:42:40;19.20;97.10
53520;DHT22;39397;53.204;5.778;2023-05-20T12:45:07;19.20;97.30
53520;DHT22;39397;53.204;5.778;2023-05-20T12:47:34;19.40;97.20
53520;DHT22;39397;53.204;5.778;2023-05-20T12:50:00;19.50;96.70
53520;DHT22;39397;53.204;5.778;2023-05-20T12:52:26;19.40;96.60
53520;DHT22;39397;53.204;5.778;2023-05-20T12:54:53;19.40;96.40
53520;DHT22;39397;53.204;5.778;2023-05-20T12:57:23;18.50;96.40
53520;DHT22;39397;53.204;5.778;2023-05-20T12:59:49;19.50;96.60
53520;DHT22;39397;53.204;5.778;2023-05-20T13:02:15;19.30;96.70
53520;DHT22;39397;53.204;5.778;2023-05-20T13:04:41;19.30;96.80
53520;DHT22;39397;53.204;5.778;2023-05-20T13:07:06;19.40;96.80
53520;DHT22;39397;53.204;5.778;2023-05-20T13:09:32;19.50;96.70
53520;DHT22;39397;53.204;5.778;2023-05-20T13:11:59;19.50;96.60
53520;DHT22;39397;53.204;5.778;2023-05-20T13:14:25;19.50;96.60
53520;DHT22;39397;53.204;5.778;2023-05-20T13:16:51;19.40;96.70
53520;DHT22;39397;53.204;5.778;2023-05-20T13:19:21;19.40;96.70
53520;DHT22;39397;53.204;5.778;2023-05-20T13:21:48;19.60;96.70
53520;DHT22;39397;53.204;5.778;2023-05-20T13:24:15;19.60;96.30
53520;DHT22;39397;53.204;5.778;2023-05-20T13:26:40;19.60;96.20
53520;DHT22;39397;53.204;5.778;2023-05-20T13:29:06;19.40;96.20
53520;DHT22;39397;53.204;5.778;2023-05-20T13:31:32;19.40;96.40
53520;DHT22;39397;53.204;5.778;2023-05-20T13:33:58;19.50;96.40
53520;DHT22;39397;53.204;5.778;2023-05-20T13:36:25;19.60;96.20
53520;DHT22;39397;53.204;5.778;2023-05-20T13:38:51;19.60;95.90
53520;DHT22;39397;53.204;5.778;2023-05-20T13:41:17;19.70;95.90
53520;DHT22;39397;53.204;5.778;2023-05-20T13:43:43;19.60;95.80
53520;DHT22;39397;53.204;5.778;2023-05-20T13:46:09;19.70;95.40
53520;DHT22;39397;53.204;5.778;2023-05-20T13:48:35;19.60;95.50
53520;DHT22;39397;53.204;5.778;2023-05-20T13:51:00;19.60;95.70
53520;DHT22;39397;53.204;5.778;2023-05-20T13:53:27;19.80;95.80
53520;DHT22;39397;53.204;5.778;2023-05-20T13:55:53;19.80;95.30
53520;DHT22;39397;53.204;5.778;2023-05-20T13:58:18;19.90;95.00
53520;DHT22;39397;53.204;5.778;2023-05-20T14:00:44;19.80;94.90
53520;DHT22;39397;53.204;5.778;2023-05-20T14:03:10;20.00;94.60
53520;DHT22;39397;53.204;5.778;2023-05-20T14:05:36;19.90;93.80
53520;DHT22;39397;53.204;5.778;2023-05-20T14:08:02;20.00;93.50
53520;DHT22;39397;53.204;5.778;2023-05-20T14:10:28;20.00;94.00
53520;DHT22;39397;53.204;5.778;2023-05-20T14:12:56;20.20;93.40
53520;DHT22;39397;53.204;5.778;2023-05-20T14:15:22;20.40;92.90
53520;DHT22;39397;53.204;5.778;2023-05-20T14:17:48;20.50;92.60
53520;DHT22;39397;53.204;5.778;2023-05-20T14:20:14;20.50;92.30
53520;DHT22;39397;53.204;5.778;2023-05-20T14:22:40;20.60;92.10
53520;DHT22;39397;53.204;5.778;2023-05-20T14:25:06;20.50;92.20
53520;DHT22;39397;53.204;5.778;2023-05-20T14:27:32;20.70;92.40
53520;DHT22;39397;53.204;5.778;2023-05-20T14:29:57;20.80;92.10
53520;DHT22;39397;53.204;5.778;2023-05-20T14:32:23;20.90;91.60
53520;DHT22;39397;53.204;5.778;2023-05-20T14:34:50;20.70;92.00
53520;DHT22;39397;53.204;5.778;2023-05-20T14:37:16;21.10;91.80
53520;DHT22;39397;53.204;5.778;2023-05-20T14:39:41;21.20;91.90
53520;DHT22;39397;53.204;5.778;2023-05-20T14:42:07;21.30;90.70
53520;DHT22;39397;53.204;5.778;2023-05-20T14:44:33;21.50;89.60
53520;DHT22;39397;53.204;5.778;2023-05-20T14:46:58;21.30;88.70
53520;DHT22;39397;53.204;5.778;2023-05-20T14:49:24;21.30;89.00
53520;DHT22;39397;53.204;5.778;2023-05-20T14:51:50;21.20;89.20
53520;DHT22;39397;53.204;5.778;2023-05-20T14:54:16;21.30;89.30
53520;DHT22;39397;53.204;5.778;2023-05-20T14:56:43;21.40;88.30
53520;DHT22;39397;53.204;5.778;2023-05-20T14:59:09;21.30;88.10
53520;DHT22;39397;53.204;5.778;2023-05-20T15:01:35;21.30;88.40
53520;DHT22;39397;53.204;5.778;2023-05-20T15:04:02;21.50;88.20
53520;DHT22;39397;53.204;5.778;2023-05-20T15:06:27;21.70;87.60
53520;DHT22;39397;53.204;5.778;2023-05-20T15:08:54;21.80;87.60
53520;DHT22;39397;53.204;5.778;2023-05-20T15:11:21;21.90;87.10
53520;DHT22;39397;53.204;5.778;2023-05-20T15:13:46;21.90;87.50
53520;DHT22;39397;53.204;5.778;2023-05-20T15:16:12;22.00;87.50
53520;DHT22;39397;53.204;5.778;2023-05-20T15:18:38;22.40;85.80
53520;DHT22;39397;53.204;5.778;2023-05-20T15:21:04;22.40;84.40
53520;DHT22;39397;53.204;5.778;2023-05-20T15:23:29;22.30;84.10
53520;DHT22;39397;53.204;5.778;2023-05-20T15:25:55;22.10;84.60
53520;DHT22;39397;53.204;5.778;2023-05-20T15:28:23;22.10;84.50
53520;DHT22;39397;53.204;5.778;2023-05-20T15:30:53;22.20;83.60
53520;DHT22;39397;53.204;5.778;2023-05-20T15:33:19;22.00;82.80
53520;DHT22;39397;53.204;5.778;2023-05-20T15:35:46;22.30;83.30